Time;durP1;ratioP1;P1;durP2;ratioP2;P2;SDS_P1;SDS_P2;PMS_P1;PMS_P2;Temp;Humidity;BMP_temperature;BMP_pressure;BME280_temperature;BME280_humidity;BME280_pressure;Samples;Min_cycle;Max_cycle;Signal;HPM_P1;HPM_P2
2021/12/06 00:01:31;;;;;;;10.37;9.37;;;7.00;99.90;;;;;;5015703;28;20447;-70
2021/12/06 00:04:02;;;;;;;10.80;9.10;;;7.00;99.90;;;;;;5015492;28;20574;-70
2021/12/06 00:06:33;;;;;;;14.47;9.60;;;7.00;99.90;;;;;;5015651;28;20432;-70
2021/12/06 00:09:00;;;;;;;9.83;9.00;;;7.00;99.90;;;;;;5016457;28;20822;-70
2021/12/06 00:11:27;;;;;;;10.13;8.93;;;6.90;99.90;;;;;;5015482;28;20450;-70
2021/12/06 00:13:54;;;;;;;9.47;8.37;;;6.90;99.90;;;;;;5015320;28;20494;-70
2021/12/06 00:16:23;;;;;;;9.80;8.80;;;6.90;99.90;;;;;;5015387;28;20447;-69
2021/12/06 00:18:52;;;;;;;8.87;8.07;;;6.90;99.90;;;;;;5015366;28;20643;-70
2021/12/06 00:21:20;;;;;;;9.73;8.73;;;6.90;99.90;;;;;;5015060;28;20451;-70
2021/12/06 00:23:47;;;;;;;10.03;9.03;;;6.90;99.90;;;;;;5015194;28;20462;-70
2021/12/06 00:26:14;;;;;;;10.67;9.57;;;6.90;99.90;;;;;;5015211;28;20447;-69
2021/12/06 00:28:43;;;;;;;9.70;8.70;;;6.90;99.90;;;;;;5015186;28;20451;-69
2021/12/06 00:31:11;;;;;;;12.50;9.27;;;6.90;99.90;;;;;;5014840;28;20972;-69
2021/12/06 00:33:39;;;;;;;14.67;11.50;;;6.90;99.90;;;;;;5014890;28;20479;-69
2021/12/06 00:36:15;;;;;;;9.97;8.97;;;6.90;99.90;;;;;;5015043;28;20891;-69
2021/12/06 00:38:44;;;;;;;12.20;8.80;;;6.90;99.90;;;;;;5015070;28;20470;-69
2021/12/06 00:41:12;;;;;;;10.83;9.63;;;6.90;99.90;;;;;;5014975;28;20506;-69
2021/12/06 00:43:38;;;;;;;10.33;9.23;;;6.80;99.90;;;;;;5014835;28;20471;-69
2021/12/06 00:46:05;;;;;;;8.77;7.97;;;6.80;99.90;;;;;;5014588;28;20933;-69
2021/12/06 00:48:32;;;;;;;10.77;8.73;;;6.80;99.90;;;;;;5014735;28;20447;-70
2021/12/06 00:50:59;;;;;;;9.60;8.77;;;6.80;99.90;;;;;;5014514;28;20937;-70
2021/12/06 00:53:27;;;;;;;9.13;8.23;;;6.80;99.90;;;;;;5014325;28;20569;-70
2021/12/06 00:55:54;;;;;;;9.53;8.33;;;6.80;99.90;;;;;;5014728;28;20497;-70
2021/12/06 00:58:21;;;;;;;10.27;9.17;;;6.80;99.90;;;;;;5014894;28;20448;-70
2021/12/06 01:00:51;;;;;;;9.13;8.20;;;6.80;99.90;;;;;;5014642;28;20458;-70
2021/12/06 01:03:20;;;;;;;8.90;8.07;;;6.80;99.90;;;;;;5014201;28;20490;-70
2021/12/06 01:05:48;;;;;;;9.73;8.73;;;6.80;99.90;;;;;;5014525;28;20470;-70
2021/12/06 01:08:14;;;;;;;9.90;7.90;;;6.80;99.90;;;;;;5014525;28;20451;-70
2021/12/06 01:10:43;;;;;;;8.93;8.07;;;6.70;99.90;;;;;;5014131;28;20984;-70
2021/12/06 01:13:09;;;;;;;10.23;9.23;;;6.70;99.90;;;;;;5014256;28;20533;-70
2021/12/06 01:15:39;;;;;;;8.87;8.03;;;6.70;99.90;;;;;;5014388;28;20458;-70
2021/12/06 01:18:07;;;;;;;9.40;8.40;;;6.70;99.90;;;;;;5014246;28;20455;-70
2021/12/06 01:20:41;;;;;;;9.30;8.40;;;6.70;99.90;;;;;;5013965;28;20823;-70
2021/12/06 01:23:12;;;;;;;8.90;8.00;;;6.70;99.90;;;;;;5014273;28;20537;-69
2021/12/06 01:25:48;;;;;;;8.47;7.70;;;6.70;99.90;;;;;;5014287;28;20428;-69
2021/12/06 01:28:46;;;;;;;8.97;8.10;;;6.70;99.90;;;;;;5014213;28;20427;-69
2021/12/06 01:31:30;;;;;;;9.10;8.20;;;6.70;99.90;;;;;;5014407;28;20457;-69
2021/12/06 01:39:07;;;;;;;12.87;8.63;;;6.70;99.90;;;;;;5013684;28;20486;-69
2021/12/06 01:39:39;;;;;;;8.93;8.03;;;6.70;99.90;;;;;;5014002;28;20431;-69
2021/12/06 01:42:08;;;;;;;7.90;6.93;;;6.70;99.90;;;;;;5013235;28;20590;-69
2021/12/06 01:44:38;;;;;;;9.57;8.40;;;6.70;99.90;;;;;;5013715;28;20447;-69
2021/12/06 01:47:07;;;;;;;13.40;8.50;;;6.70;99.90;;;;;;5013989;28;20439;-69
2021/12/06 01:49:37;;;;;;;8.87;8.07;;;6.70;99.90;;;;;;5013849;28;20443;-69
2021/12/06 01:52:07;;;;;;;8.83;8.03;;;6.70;99.90;;;;;;5013875;28;20468;-69
2021/12/06 01:54:34;;;;;;;8.77;7.90;;;6.70;99.90;;;;;;5013760;28;20537;-69
2021/12/06 01:57:01;;;;;;;9.90;8.47;;;6.70;99.90;;;;;;5013745;28;20466;-69
2021/12/06 01:59:28;;;;;;;7.63;6.83;;;6.60;99.90;;;;;;5013789;28;20451;-69
2021/12/06 02:01:56;;;;;;;8.80;7.97;;;6.60;99.90;;;;;;5013570;28;20443;-69
2021/12/06 02:04:24;;;;;;;8.30;7.27;;;6.60;99.90;;;;;;5013533;28;20894;-69
2021/12/06 02:06:50;;;;;;;9.60;7.87;;;6.60;99.90;;;;;;5013371;28;21003;-69
2021/12/06 02:09:20;;;;;;;9.50;7.70;;;6.60;99.90;;;;;;5013598;28;20443;-69
2021/12/06 02:11:48;;;;;;;10.73;8.30;;;6.50;99.90;;;;;;5013589;28;20431;-69
2021/12/06 02:14:33;;;;;;;8.40;7.70;;;6.50;99.90;;;;;;5013198;28;20479;-69
2021/12/06 02:17:11;;;;;;;8.60;7.80;;;6.50;99.90;;;;;;5013359;28;20964;-69
2021/12/06 02:19:43;;;;;;;8.63;7.73;;;6.40;99.90;;;;;;5013570;28;20475;-69
2021/12/06 02:22:12;;;;;;;9.80;8.90;;;6.40;99.90;;;;;;5013731;28;20471;-69
2021/12/06 02:24:40;;;;;;;7.43;6.83;;;6.40;99.90;;;;;;5013525;28;20450;-69
2021/12/06 02:27:08;;;;;;;7.60;7.00;;;6.40;99.90;;;;;;5013491;28;20443;-69
2021/12/06 02:29:36;;;;;;;8.30;7.60;;;6.40;99.90;;;;;;5013423;28;20509;-69
2021/12/06 02:32:09;;;;;;;8.13;7.33;;;6.40;99.90;;;;;;5013649;28;20444;-69
2021/12/06 02:34:36;;;;;;;8.77;7.90;;;6.50;99.90;;;;;;5013650;28;20467;-69
2021/12/06 02:37:04;;;;;;;8.10;7.30;;;6.50;99.90;;;;;;5013098;28;20448;-69
2021/12/06 02:39:32;;;;;;;10.77;8.43;;;6.40;99.90;;;;;;5013407;28;20470;-69
2021/12/06 02:42:00;;;;;;;8.53;7.60;;;6.50;99.90;;;;;;5013534;28;20444;-69
2021/12/06 02:44:28;;;;;;;8.33;7.63;;;6.40;99.90;;;;;;5013459;28;20455;-69
2021/12/06 02:46:55;;;;;;;9.77;8.30;;;6.50;99.90;;;;;;5013262;28;20637;-69
2021/12/06 02:49:22;;;;;;;8.83;8.03;;;6.40;99.90;;;;;;5013302;28;20443;-69
2021/12/06 02:51:50;;;;;;;8.80;7.80;;;6.40;99.90;;;;;;5013175;28;20502;-69
2021/12/06 02:54:19;;;;;;;9.60;8.60;;;6.40;99.90;;;;;;5014537;28;20479;-69
2021/12/06 02:57:06;;;;;;;10.13;7.20;;;6.30;99.90;;;;;;5016624;28;20454;-69
2021/12/06 02:59:33;;;;;;;8.90;8.00;;;6.30;99.90;;;;;;5016987;28;20431;-69
2021/12/06 03:02:03;;;;;;;9.37;8.37;;;6.30;99.90;;;;;;5016576;28;20812;-69
2021/12/06 03:04:30;;;;;;;11.70;8.40;;;6.30;99.90;;;;;;5016559;28;20834;-69
2021/12/06 03:06:58;;;;;;;9.27;8.47;;;6.30;99.90;;;;;;5016688;28;20458;-69
2021/12/06 03:09:27;;;;;;;8.43;7.50;;;6.30;99.90;;;;;;5016726;28;20462;-69
2021/12/06 03:11:59;;;;;;;8.87;8.07;;;6.30;99.90;;;;;;5016556;28;20451;-69
2021/12/06 03:14:28;;;;;;;8.53;7.83;;;6.30;99.90;;;;;;5016853;28;20513;-69
2021/12/06 03:16:57;;;;;;;10.70;8.50;;;6.30;99.90;;;;;;5016262;28;20450;-69
2021/12/06 03:19:24;;;;;;;8.13;7.43;;;6.20;99.90;;;;;;5016543;28;20446;-69
2021/12/06 03:21:51;;;;;;;9.33;7.50;;;6.20;99.90;;;;;;5016373;28;20451;-69
2021/12/06 03:24:18;;;;;;;8.33;7.60;;;6.20;99.90;;;;;;5016113;28;20796;-69
2021/12/06 03:26:46;;;;;;;9.27;8.47;;;6.20;99.90;;;;;;5016572;28;20477;-69
2021/12/06 03:29:14;;;;;;;8.90;7.57;;;6.20;99.90;;;;;;5016031;28;20946;-69
2021/12/06 03:31:42;;;;;;;9.30;8.30;;;6.20;99.90;;;;;;5016274;28;20443;-69
2021/12/06 03:34:09;;;;;;;8.37;7.00;;;6.10;99.90;;;;;;5016103;28;20490;-69
2021/12/06 03:36:39;;;;;;;8.23;7.43;;;6.10;99.90;;;;;;5016208;28;20447;-69
2021/12/06 03:39:09;;;;;;;8.70;7.90;;;6.10;99.90;;;;;;5016150;28;20447;-69
2021/12/06 03:41:36;;;;;;;8.40;7.60;;;6.10;99.90;;;;;;5016365;28;20428;-69
2021/12/06 03:44:03;;;;;;;8.53;7.03;;;6.10;99.90;;;;;;5015665;28;20981;-69
2021/12/06 03:46:33;;;;;;;8.80;8.00;;;6.10;99.90;;;;;;5016015;28;20451;-69
2021/12/06 03:49:00;;;;;;;8.37;7.57;;;6.10;99.90;;;;;;5015960;28;20470;-69
2021/12/06 03:51:27;;;;;;;7.30;6.60;;;6.00;99.80;;;;;;5015937;28;20819;-69
2021/12/06 03:53:53;;;;;;;7.83;7.13;;;6.00;99.70;;;;;;5015719;28;20537;-69
2021/12/06 03:56:20;;;;;;;7.57;6.87;;;6.00;99.70;;;;;;5015840;28;20451;-69
2021/12/06 03:58:47;;;;;;;7.80;7.10;;;6.00;99.70;;;;;;5015802;28;20543;-69
2021/12/06 04:01:15;;;;;;;7.70;7.07;;;5.90;99.60;;;;;;5015739;28;20869;-69
2021/12/06 04:03:44;;;;;;;7.40;6.70;;;5.90;99.50;;;;;;5015306;28;20495;-69
2021/12/06 04:06:12;;;;;;;7.43;6.73;;;5.90;99.40;;;;;;5015301;28;20451;-69
2021/12/06 04:08:39;;;;;;;6.80;6.20;;;5.80;99.40;;;;;;5015620;28;20448;-69
2021/12/06 04:11:06;;;;;;;7.93;7.17;;;5.80;99.20;;;;;;5015553;28;20451;-69
2021/12/06 04:13:33;;;;;;;8.60;7.77;;;5.80;99.20;;;;;;5015262;28;20486;-69
2021/12/06 04:16:00;;;;;;;7.93;7.23;;;5.80;99.10;;;;;;5015167;28;20451;-69
2021/12/06 04:18:27;;;;;;;7.43;6.73;;;5.80;99.00;;;;;;5015444;28;20447;-69
2021/12/06 04:20:56;;;;;;;7.70;6.37;;;5.70;98.80;;;;;;5015390;28;20455;-69
2021/12/06 04:23:23;;;;;;;7.90;6.77;;;5.70;98.80;;;;;;5014959;28;20981;-69
2021/12/06 04:25:50;;;;;;;7.73;7.03;;;5.70;98.70;;;;;;5015261;28;20466;-69
2021/12/06 04:28:19;;;;;;;7.80;7.00;;;5.70;98.70;;;;;;5015216;28;20450;-69
2021/12/06 04:30:47;;;;;;;6.20;5.70;;;5.70;98.60;;;;;;5014982;28;20940;-69
2021/12/06 04:33:14;;;;;;;6.90;6.20;;;5.60;98.50;;;;;;5015191;28;20859;-69
2021/12/06 04:35:42;;;;;;;8.10;6.60;;;5.60;98.40;;;;;;5014687;28;20824;-69
2021/12/06 04:38:10;;;;;;;7.67;6.67;;;5.60;98.40;;;;;;5015141;28;20447;-69
2021/12/06 04:40:38;;;;;;;7.20;6.40;;;5.60;98.40;;;;;;5015027;28;20448;-69
2021/12/06 04:43:05;;;;;;;7.50;6.80;;;5.60;98.50;;;;;;5014936;28;20514;-69
2021/12/06 04:45:33;;;;;;;7.80;7.17;;;5.60;98.60;;;;;;5014977;28;20443;-69
2021/12/06 04:47:59;;;;;;;6.60;6.00;;;5.60;98.60;;;;;;5014610;28;20447;-69
2021/12/06 04:50:30;;;;;;;7.90;7.10;;;5.60;98.70;;;;;;5014820;28;20505;-69
2021/12/06 04:53:00;;;;;;;8.27;7.47;;;5.60;98.70;;;;;;5014749;28;20498;-69
2021/12/06 04:55:37;;;;;;;10.83;8.60;;;5.60;98.70;;;;;;5014632;28;20478;-69
2021/12/06 04:58:06;;;;;;;11.37;9.00;;;5.60;98.80;;;;;;5014948;28;20428;-69
2021/12/06 05:00:36;;;;;;;10.00;8.70;;;5.60;98.80;;;;;;5014572;28;20458;-69
2021/12/06 05:03:04;;;;;;;11.13;7.93;;;5.60;98.80;;;;;;5014436;28;20479;-69
2021/12/06 05:05:36;;;;;;;7.77;7.07;;;5.50;98.80;;;;;;5014562;28;20450;-68
2021/12/06 05:08:08;;;;;;;8.60;7.27;;;5.50;98.80;;;;;;5014509;28;20435;-68
2021/12/06 05:10:36;;;;;;;9.57;7.80;;;5.50;98.80;;;;;;5014480;28;20435;-68
2021/12/06 05:13:04;;;;;;;8.23;7.43;;;5.50;98.80;;;;;;5014409;28;20464;-69
2021/12/06 05:15:30;;;;;;;8.03;7.23;;;5.50;98.80;;;;;;5014293;28;20475;-69
2021/12/06 05:17:57;;;;;;;10.23;7.43;;;5.50;98.70;;;;;;5013625;28;20447;-69
2021/12/06 05:20:24;;;;;;;9.10;7.73;;;5.40;98.60;;;;;;5014003;28;20940;-69
2021/12/06 05:22:51;;;;;;;9.90;8.03;;;5.40;98.70;;;;;;5014389;28;20467;-69
2021/12/06 05:25:22;;;;;;;9.97;7.20;;;5.40;98.70;;;;;;5014306;28;20780;-69
2021/12/06 05:27:51;;;;;;;8.70;7.80;;;5.40;98.70;;;;;;5014514;28;20442;-69
2021/12/06 05:30:21;;;;;;;8.23;7.43;;;5.40;98.70;;;;;;5014165;28;20428;-69
2021/12/06 05:32:48;;;;;;;7.27;6.53;;;5.40;98.50;;;;;;5013745;28;20823;-69
2021/12/06 05:35:16;;;;;;;9.03;8.07;;;5.40;98.50;;;;;;5013956;28;20471;-69
2021/12/06 05:37:46;;;;;;;9.20;7.20;;;5.40;98.40;;;;;;5014012;28;20455;-69
2021/12/06 05:40:17;;;;;;;8.80;7.67;;;5.40;98.30;;;;;;5014060;28;20493;-69
2021/12/06 05:42:44;;;;;;;9.40;8.40;;;5.40;98.30;;;;;;5013892;28;20475;-69
2021/12/06 05:45:14;;;;;;;7.30;6.67;;;5.30;98.20;;;;;;5013951;28;20450;-69
2021/12/06 05:47:40;;;;;;;7.43;6.50;;;5.30;98.10;;;;;;5013819;28;20850;-69
2021/12/06 05:50:08;;;;;;;7.70;7.00;;;5.30;98.00;;;;;;5013941;28;20450;-70
2021/12/06 05:52:35;;;;;;;7.23;6.53;;;5.30;97.90;;;;;;5013479;28;20973;-70
2021/12/06 05:55:03;;;;;;;7.43;6.53;;;5.30;97.90;;;;;;5013400;28;21099;-70
2021/12/06 05:57:30;;;;;;;7.13;6.30;;;5.20;97.80;;;;;;5013856;28;20424;-70
2021/12/06 05:59:57;;;;;;;7.47;6.80;;;5.20;97.70;;;;;;5013965;28;20451;-70
2021/12/06 06:02:26;;;;;;;7.70;6.90;;;5.10;97.60;;;;;;5013294;28;21023;-70
2021/12/06 06:04:53;;;;;;;7.47;6.73;;;5.10;97.50;;;;;;5013750;28;20428;-70
2021/12/06 06:07:20;;;;;;;7.07;6.47;;;5.10;97.40;;;;;;5013739;28;20889;-70
2021/12/06 06:09:47;;;;;;;9.57;7.70;;;5.10;97.50;;;;;;5013761;28;20454;-70
2021/12/06 06:12:13;;;;;;;23.07;8.77;;;5.10;97.40;;;;;;5013557;28;20502;-70
2021/12/06 06:14:40;;;;;;;8.90;7.83;;;5.00;97.30;;;;;;5013597;28;20479;-70
2021/12/06 06:17:11;;;;;;;7.77;6.77;;;5.00;97.30;;;;;;5013713;28;20523;-70
2021/12/06 06:19:42;;;;;;;7.20;6.60;;;5.00;97.30;;;;;;5013294;28;20783;-71
2021/12/06 06:22:09;;;;;;;8.93;7.03;;;5.00;97.20;;;;;;5013567;28;20471;-71
2021/12/06 06:24:36;;;;;;;10.07;7.30;;;4.90;97.10;;;;;;5013506;28;20435;-71
2021/12/06 06:27:03;;;;;;;6.67;5.90;;;4.90;97.10;;;;;;5013542;28;20447;-71
2021/12/06 06:29:31;;;;;;;7.17;6.43;;;4.90;97.10;;;;;;5016685;28;20963;-71
2021/12/06 06:31:58;;;;;;;6.77;6.03;;;4.90;97.10;;;;;;5018362;28;20458;-71
2021/12/06 06:34:25;;;;;;;6.80;6.27;;;4.90;97.10;;;;;;5017406;28;20443;-71
2021/12/06 06:36:53;;;;;;;8.13;7.30;;;4.90;97.10;;;;;;5017330;28;20447;-71
2021/12/06 06:39:21;;;;;;;6.73;6.20;;;4.90;97.10;;;;;;5017299;28;20447;-71
2021/12/06 06:41:48;;;;;;;7.70;7.10;;;4.80;97.10;;;;;;5017197;28;20459;-71
2021/12/06 06:44:17;;;;;;;15.70;6.80;;;4.80;97.10;;;;;;5017212;28;20501;-71
2021/12/06 06:46:44;;;;;;;8.57;7.07;;;4.80;97.10;;;;;;5017170;28;20714;-71
2021/12/06 06:49:11;;;;;;;7.93;7.10;;;4.80;97.20;;;;;;5017862;28;20482;-71
2021/12/06 06:51:38;;;;;;;9.60;8.60;;;4.80;97.40;;;;;;5017010;28;20859;-71
2021/12/06 06:54:07;;;;;;;8.67;7.57;;;4.90;97.60;;;;;;5017152;28;20463;-71
2021/12/06 06:56:34;;;;;;;10.60;8.60;;;4.90;97.80;;;;;;5016897;28;20487;-71
2021/12/06 06:59:00;;;;;;;10.07;8.77;;;4.90;98.00;;;;;;5016858;28;20443;-71
2021/12/06 07:01:27;;;;;;;11.67;8.87;;;4.90;98.10;;;;;;5016818;28;20439;-72
2021/12/06 07:03:54;;;;;;;11.13;8.80;;;4.90;98.20;;;;;;5016555;28;20483;-71
2021/12/06 07:06:21;;;;;;;11.90;9.20;;;4.90;98.40;;;;;;5016782;28;20443;-72
2021/12/06 07:08:48;;;;;;;10.83;9.43;;;5.00;98.50;;;;;;5016736;28;20443;-72
2021/12/06 07:11:16;;;;;;;10.63;9.13;;;5.00;98.60;;;;;;5016350;28;20944;-72
2021/12/06 07:13:43;;;;;;;12.63;9.80;;;5.00;98.80;;;;;;5016483;28;20463;-71
2021/12/06 07:16:11;;;;;;;12.23;10.47;;;5.00;98.90;;;;;;5016214;28;20487;-72
2021/12/06 07:18:38;;;;;;;11.60;9.67;;;5.00;99.00;;;;;;5016420;28;20493;-72
2021/12/06 07:21:05;;;;;;;15.23;10.70;;;5.00;99.40;;;;;;5016519;28;20447;-72
2021/12/06 07:23:38;;;;;;;12.67;10.63;;;5.00;99.50;;;;;;5016341;28;20466;-73
2021/12/06 07:26:05;;;;;;;11.40;10.20;;;5.00;99.50;;;;;;5016534;28;20852;-73
2021/12/06 07:28:33;;;;;;;10.20;9.10;;;5.00;99.50;;;;;;5016292;28;20451;-73
2021/12/06 07:31:01;;;;;;;10.43;8.23;;;5.00;99.40;;;;;;5016030;28;20941;-73
2021/12/06 07:33:29;;;;;;;11.63;9.93;;;4.90;99.40;;;;;;5016158;28;20570;-73
2021/12/06 07:35:55;;;;;;;10.90;9.80;;;4.90;99.40;;;;;;5016111;28;20490;-73
2021/12/06 07:38:22;;;;;;;13.70;9.63;;;4.90;99.40;;;;;;5016204;28;20482;-73
2021/12/06 07:40:50;;;;;;;17.93;11.70;;;4.90;99.40;;;;;;5015427;28;20448;-73
2021/12/06 07:43:17;;;;;;;11.77;10.30;;;4.90;99.50;;;;;;5015923;28;20472;-73
2021/12/06 07:45:46;;;;;;;15.00;12.27;;;4.90;99.60;;;;;;5016001;28;20443;-73
2021/12/06 07:48:13;;;;;;;18.13;13.33;;;5.00;99.90;;;;;;5015676;28;20441;-73
2021/12/06 07:50:40;;;;;;;18.17;14.43;;;5.00;99.90;;;;;;5015929;28;20526;-72
2021/12/06 07:53:07;;;;;;;17.17;13.57;;;5.10;99.90;;;;;;5015777;28;20474;-72
2021/12/06 07:55:35;;;;;;;19.33;15.27;;;5.10;99.90;;;;;;5015822;28;20888;-72
2021/12/06 07:58:02;;;;;;;19.70;13.77;;;5.10;99.90;;;;;;5015504;28;20947;-72
2021/12/06 08:00:32;;;;;;;25.30;14.00;;;5.10;99.90;;;;;;5015560;28;20450;-72
2021/12/06 08:03:00;;;;;;;23.83;13.67;;;5.10;99.90;;;;;;5015501;28;20486;-72
2021/12/06 08:05:31;;;;;;;27.10;13.43;;;5.10;99.90;;;;;;5015685;28;20535;-70
2021/12/06 08:07:58;;;;;;;35.00;13.30;;;5.10;99.90;;;;;;5015671;28;20432;-70
2021/12/06 08:10:25;;;;;;;22.10;13.23;;;5.00;99.90;;;;;;5015488;28;20455;-71
2021/12/06 08:12:52;;;;;;;45.33;14.60;;;5.00;99.90;;;;;;5015159;28;20999;-71
2021/12/06 08:15:19;;;;;;;17.40;13.60;;;4.90;99.90;;;;;;5015438;28;20486;-72
2021/12/06 08:17:46;;;;;;;20.30;13.60;;;4.90;99.90;;;;;;5015411;28;20451;-71
2021/12/06 08:20:15;;;;;;;18.80;13.37;;;4.80;99.90;;;;;;5015369;28;20447;-71
2021/12/06 08:22:42;;;;;;;24.50;15.30;;;4.90;99.90;;;;;;5015311;28;20555;-71
2021/12/06 08:25:10;;;;;;;23.23;15.70;;;4.90;99.90;;;;;;5015322;28;20439;-72
2021/12/06 08:27:38;;;;;;;53.60;16.47;;;4.90;99.90;;;;;;5014930;28;20972;-71
2021/12/06 08:30:06;;;;;;;70.77;17.93;;;4.90;99.90;;;;;;5015253;28;20458;-71
2021/12/06 08:32:33;;;;;;;57.80;15.50;;;4.80;99.90;;;;;;5015266;28;20513;-71
2021/12/06 08:35:00;;;;;;;117.07;19.97;;;4.60;99.90;;;;;;5014951;28;20455;-71
2021/12/06 08:37:28;;;;;;;141.50;19.90;;;4.60;99.90;;;;;;5015162;28;20455;-71
2021/12/06 08:39:55;;;;;;;38.77;16.20;;;4.50;99.90;;;;;;5015155;28;20452;-71
2021/12/06 08:42:22;;;;;;;33.47;18.13;;;4.50;99.90;;;;;;5014900;28;20467;-72
2021/12/06 08:44:49;;;;;;;28.23;17.53;;;4.50;99.90;;;;;;5014922;28;20474;-71
2021/12/06 08:47:17;;;;;;;54.57;18.90;;;4.60;99.90;;;;;;5014949;28;20517;-71
2021/12/06 08:49:43;;;;;;;48.17;19.63;;;4.60;99.90;;;;;;5014607;28;20930;-71
2021/12/06 08:52:10;;;;;;;57.13;22.57;;;4.60;99.90;;;;;;5013908;28;20486;-71
2021/12/06 08:54:38;;;;;;;50.43;21.77;;;4.60;99.90;;;;;;5014846;28;20474;-71
2021/12/06 08:57:05;;;;;;;59.93;23.30;;;4.60;99.90;;;;;;5014632;28;20487;-71
2021/12/06 08:59:32;;;;;;;33.23;22.37;;;4.70;99.90;;;;;;5014690;28;20451;-71
2021/12/06 09:01:59;;;;;;;31.50;22.23;;;4.80;99.90;;;;;;5014415;28;20448;-71
2021/12/06 09:04:28;;;;;;;38.73;21.93;;;4.80;99.90;;;;;;5014304;28;20430;-71
2021/12/06 09:06:58;;;;;;;36.77;22.57;;;4.90;99.90;;;;;;5014450;28;20582;-72
2021/12/06 09:09:27;;;;;;;51.90;25.80;;;4.90;99.90;;;;;;5014519;28;20493;-71
2021/12/06 09:11:57;;;;;;;47.50;28.00;;;5.00;99.90;;;;;;5014358;28;20451;-71
2021/12/06 09:14:24;;;;;;;46.27;25.83;;;5.10;99.90;;;;;;5014136;28;20952;-71
2021/12/06 09:16:52;;;;;;;58.17;26.90;;;5.20;99.90;;;;;;5014609;28;20483;-71
2021/12/06 09:19:19;;;;;;;43.67;25.40;;;5.30;99.90;;;;;;5014264;28;20447;-71
2021/12/06 09:21:46;;;;;;;47.70;25.97;;;5.40;99.90;;;;;;5014164;28;20498;-71
2021/12/06 09:24:16;;;;;;;90.67;27.53;;;5.50;99.90;;;;;;5013778;28;20996;-71
2021/12/06 09:26:44;;;;;;;44.57;24.93;;;5.60;99.90;;;;;;5014044;28;20906;-71
2021/12/06 09:29:12;;;;;;;81.57;28.20;;;5.70;99.90;;;;;;5014097;28;20456;-71
2021/12/06 09:31:39;;;;;;;80.27;31.30;;;5.80;99.90;;;;;;5014086;28;20450;-71
2021/12/06 09:34:06;;;;;;;49.33;27.17;;;5.80;99.90;;;;;;5013982;28;20471;-71
2021/12/06 09:36:34;;;;;;;95.93;27.00;;;5.80;99.90;;;;;;5013913;28;20479;-71
2021/12/06 09:39:00;;;;;;;46.93;26.10;;;5.90;99.90;;;;;;5013993;28;20482;-71
2021/12/06 09:41:28;;;;;;;52.20;29.03;;;5.90;99.90;;;;;;5013619;28;20952;-71
2021/12/06 09:43:57;;;;;;;55.40;26.33;;;5.90;99.90;;;;;;5013832;28;20525;-71
2021/12/06 09:46:25;;;;;;;44.90;25.60;;;6.10;99.90;;;;;;5013952;28;20428;-71
2021/12/06 09:48:52;;;;;;;59.13;28.53;;;6.20;99.90;;;;;;5013547;28;20891;-71
2021/12/06 09:51:22;;;;;;;56.87;29.80;;;6.30;99.90;;;;;;5014747;28;20443;-71
2021/12/06 09:53:50;;;;;;;52.50;30.10;;;6.30;99.90;;;;;;5013786;28;20463;-71
2021/12/06 09:56:25;;;;;;;63.03;31.50;;;6.40;99.90;;;;;;5013699;28;20842;-71
2021/12/06 09:58:53;;;;;;;52.60;29.57;;;6.40;99.90;;;;;;5014341;28;20458;-71
2021/12/06 10:01:24;;;;;;;59.83;30.37;;;6.40;99.90;;;;;;5013431;28;20945;-71
2021/12/06 10:03:55;;;;;;;47.53;27.13;;;6.40;99.90;;;;;;5013191;28;20541;-71
2021/12/06 10:06:23;;;;;;;53.37;30.23;;;6.40;99.90;;;;;;5013738;28;20428;-71
2021/12/06 10:08:51;;;;;;;63.47;31.27;;;6.40;99.90;;;;;;5013639;28;20454;-71
2021/12/06 10:11:20;;;;;;;50.13;31.20;;;6.40;99.90;;;;;;5013825;28;20538;-71
2021/12/06 10:13:47;;;;;;;54.10;32.90;;;6.30;99.90;;;;;;5014433;28;20554;-71
2021/12/06 10:16:14;;;;;;;66.73;36.33;;;6.40;99.90;;;;;;5013520;28;20478;-71
2021/12/06 10:18:42;;;;;;;57.10;34.37;;;6.40;99.90;;;;;;5013267;28;20843;-71
2021/12/06 10:21:10;;;;;;;56.03;35.07;;;6.50;99.90;;;;;;5013601;28;20452;-71
2021/12/06 10:23:38;;;;;;;55.93;34.97;;;6.50;99.90;;;;;;5013166;28;20478;-71
2021/12/06 10:26:06;;;;;;;56.97;29.67;;;6.60;99.90;;;;;;5013529;28;20455;-71
2021/12/06 10:28:34;;;;;;;37.90;24.10;;;6.50;99.90;;;;;;5013442;28;20454;-71
2021/12/06 10:31:04;;;;;;;35.77;22.00;;;6.30;99.90;;;;;;5013459;28;20543;-71
2021/12/06 10:33:35;;;;;;;34.73;21.67;;;6.10;99.90;;;;;;5013410;28;20525;-71
2021/12/06 10:36:06;;;;;;;35.40;22.40;;;6.00;99.90;;;;;;5013380;28;20463;-71
2021/12/06 10:38:37;;;;;;;32.27;21.13;;;6.00;99.90;;;;;;5013666;28;20443;-70
2021/12/06 10:41:07;;;;;;;39.87;21.13;;;6.10;99.90;;;;;;5013414;28;20518;-70
2021/12/06 10:43:34;;;;;;;33.33;22.40;;;6.10;99.90;;;;;;5013240;28;20474;-70
2021/12/06 10:46:02;;;;;;;38.30;20.93;;;6.10;99.90;;;;;;5013893;28;20451;-70
2021/12/06 10:48:31;;;;;;;37.70;20.60;;;6.10;99.90;;;;;;5013224;28;20451;-70
2021/12/06 10:51:01;;;;;;;33.93;19.60;;;6.10;99.90;;;;;;5012968;28;20964;-70
2021/12/06 10:53:35;;;;;;;34.50;20.00;;;5.80;99.90;;;;;;5013122;28;20471;-71
2021/12/06 10:56:05;;;;;;;28.50;18.20;;;5.80;99.90;;;;;;5013172;28;20986;-71
2021/12/06 10:58:32;;;;;;;28.70;18.60;;;5.80;99.90;;;;;;5013259;28;20451;-71
2021/12/06 11:01:05;;;;;;;29.27;19.10;;;5.90;99.90;;;;;;5012798;28;20447;-71
2021/12/06 11:03:34;;;;;;;26.77;19.00;;;5.90;99.90;;;;;;5012878;28;20486;-71
2021/12/06 11:06:04;;;;;;;31.83;18.70;;;6.10;99.90;;;;;;5013102;28;20468;-71
2021/12/06 11:08:34;;;;;;;28.57;17.63;;;6.20;99.90;;;;;;5013157;28;20439;-71
2021/12/06 11:11:08;;;;;;;26.33;18.63;;;6.30;99.90;;;;;;5013099;28;20523;-71
2021/12/06 11:13:37;;;;;;;24.93;18.90;;;6.40;99.90;;;;;;5013018;28;20467;-71
2021/12/06 11:16:08;;;;;;;23.73;17.87;;;6.60;99.90;;;;;;5015960;28;20487;-71
2021/12/06 11:18:42;;;;;;;25.83;18.90;;;6.60;99.90;;;;;;5016600;28;20473;-71
2021/12/06 11:21:29;;;;;;;29.90;20.03;;;6.70;99.90;;;;;;5016529;28;20428;-71
2021/12/06 11:24:01;;;;;;;25.17;17.33;;;6.70;99.90;;;;;;5016444;28;20474;-71
2021/12/06 11:26:31;;;;;;;30.43;17.43;;;6.60;99.30;;;;;;5016048;28;20833;-71
2021/12/06 11:29:08;;;;;;;24.47;18.93;;;6.60;99.70;;;;;;5016286;28;20797;-71
2021/12/06 11:31:35;;;;;;;26.63;18.73;;;6.60;99.60;;;;;;5016470;28;20427;-71
2021/12/06 11:34:05;;;;;;;26.47;18.10;;;6.60;99.70;;;;;;5016049;28;20471;-71
2021/12/06 11:36:32;;;;;;;26.30;16.97;;;6.70;99.70;;;;;;5016121;28;20984;-71
2021/12/06 11:39:00;;;;;;;26.07;17.87;;;6.70;99.50;;;;;;5016210;28;20497;-71
2021/12/06 11:41:29;;;;;;;26.57;18.40;;;6.80;99.40;;;;;;5016216;28;20444;-71
2021/12/06 11:43:57;;;;;;;23.77;16.93;;;6.80;99.40;;;;;;5016036;28;20489;-71
2021/12/06 11:46:30;;;;;;;24.30;18.00;;;6.80;99.40;;;;;;5016365;28;20453;-71
2021/12/06 11:48:57;;;;;;;24.00;17.40;;;6.80;99.00;;;;;;5015972;28;20456;-71
2021/12/06 11:51:26;;;;;;;26.20;18.13;;;6.80;98.90;;;;;;5015937;28;20448;-71
2021/12/06 11:53:55;;;;;;;25.20;18.23;;;6.80;98.80;;;;;;5015855;28;20463;-72
2021/12/06 11:56:25;;;;;;;27.30;19.13;;;6.90;98.90;;;;;;5015820;28;20483;-71
2021/12/06 11:58:55;;;;;;;27.70;19.10;;;6.90;99.10;;;;;;5015764;28;20447;-71
2021/12/06 12:01:26;;;;;;;23.87;17.83;;;7.10;99.30;;;;;;5015760;28;20439;-71
2021/12/06 12:03:56;;;;;;;21.47;17.63;;;7.20;99.00;;;;;;5015523;28;20475;-71
2021/12/06 12:06:28;;;;;;;26.07;18.50;;;7.30;98.80;;;;;;5015712;28;20434;-71
2021/12/06 12:09:05;;;;;;;28.07;19.03;;;7.50;98.30;;;;;;5015643;28;20778;-71
2021/12/06 12:11:32;;;;;;;24.07;18.40;;;7.60;98.20;;;;;;5015276;28;20442;-71
2021/12/06 12:14:10;;;;;;;23.53;19.40;;;7.60;98.20;;;;;;5015398;28;20471;-71
2021/12/06 12:16:37;;;;;;;24.57;19.37;;;7.80;97.80;;;;;;5015359;28;20475;-71
2021/12/06 12:19:04;;;;;;;24.80;18.80;;;7.90;97.80;;;;;;5015389;28;20444;-71
2021/12/06 12:21:31;;;;;;;24.37;18.17;;;8.20;97.50;;;;;;5015012;28;20933;-71
2021/12/06 12:23:59;;;;;;;22.57;17.77;;;8.50;96.90;;;;;;5014941;28;20833;-71
2021/12/06 12:26:26;;;;;;;24.43;20.37;;;8.60;95.80;;;;;;5015309;28;20534;-71
2021/12/06 12:29:00;;;;;;;24.10;19.10;;;8.70;95.20;;;;;;5015254;28;20538;-71
2021/12/06 12:31:30;;;;;;;23.60;19.47;;;8.70;94.70;;;;;;5015203;28;20436;-71
2021/12/06 12:33:58;;;;;;;27.60;18.70;;;8.70;94.50;;;;;;5015062;28;20557;-71
2021/12/06 12:36:26;;;;;;;24.23;17.93;;;8.70;94.30;;;;;;5014965;28;20439;-71
2021/12/06 12:38:56;;;;;;;23.13;17.40;;;8.60;94.20;;;;;;5015028;28;20450;-71
2021/12/06 12:41:28;;;;;;;23.63;18.10;;;8.50;94.50;;;;;;5015038;28;20436;-71
2021/12/06 12:44:03;;;;;;;24.00;17.10;;;8.70;94.90;;;;;;5014823;28;20545;-71
2021/12/06 12:46:37;;;;;;;23.27;18.20;;;8.90;95.00;;;;;;5014799;28;20427;-71
2021/12/06 12:49:10;;;;;;;26.00;18.50;;;9.00;94.60;;;;;;5014867;28;20777;-71
2021/12/06 12:51:40;;;;;;;23.43;17.23;;;9.10;94.40;;;;;;5014863;28;20432;-71
2021/12/06 12:54:11;;;;;;;25.00;17.67;;;9.20;93.60;;;;;;5014791;28;20561;-71
2021/12/06 12:56:41;;;;;;;25.40;18.40;;;9.20;92.60;;;;;;5014704;28;20517;-71
2021/12/06 12:59:22;;;;;;;22.93;17.10;;;9.30;92.40;;;;;;5014909;28;20447;-71